X  Close Metar Aviation Weather Data        KPNS Naval Air Station - Pensacola, Florida
Temperature
88°F Temperature
72°F Dewpoint
59% Humidity



Wind
15 MPH
24 KM/H
7 M/S
13 KTS



190°
S
Current Conditions

Partly Cloudy with Nearby Thunderstorms Partly Cloudy , Nearby Thunderstorms
Pressure 1016 (hPa) - 30 (inHg)
Visibility 10 (mile) - 16 (km)
Airport
Airport-code KPNS

Location: Naval Air Station - Pensacola, Florida
Distance: 1 (mi)

Metar:
METAR KPNS 221926Z 19013G19KT 10SM VCTS SCT025 31/22 A3001 RMK AO2 LTG DSNT NW-NE T03110222

Time: 07-22-2024 14:26 CDT